Time;durP1;ratioP1;P1;durP2;ratioP2;P2;SDS_P1;SDS_P2;PMS_P1;PMS_P2;Temp;Humidity;BMP_temperature;BMP_pressure;BME280_temperature;BME280_humidity;BME280_pressure;Samples;Min_cycle;Max_cycle;Signal;HPM_P1;HPM_P2
2022/05/23 00:00:15;;;;;;;3.38;2.22;;;15.60;82.80;;;;;;5029497;28;20045;-68
2022/05/23 00:02:40;;;;;;;4.72;2.63;;;15.60;83.10;;;;;;5010873;28;20105;-69
2022/05/23 00:05:06;;;;;;;4.75;2.50;;;15.60;83.30;;;;;;5011676;28;20393;-69
2022/05/23 00:07:37;;;;;;;4.30;2.05;;;15.60;83.40;;;;;;5006800;28;20041;-69
2022/05/23 00:10:05;;;;;;;3.08;2.45;;;15.60;83.70;;;;;;5021307;28;20116;-69
2022/05/23 00:12:30;;;;;;;4.30;2.60;;;15.60;83.70;;;;;;4993675;28;20026;-69
2022/05/23 00:14:56;;;;;;;7.53;2.78;;;15.60;83.80;;;;;;5016082;28;20441;-69
2022/05/23 00:17:21;;;;;;;4.05;2.67;;;15.50;84.10;;;;;;4997705;28;20087;-69
2022/05/23 00:19:48;;;;;;;3.88;2.42;;;15.50;84.20;;;;;;4996825;28;20045;-69
2022/05/23 00:22:14;;;;;;;4.05;2.50;;;15.50;84.50;;;;;;4996404;28;20509;-68
2022/05/23 00:24:45;;;;;;;4.85;2.67;;;15.50;84.80;;;;;;4996961;28;20038;-68
2022/05/23 00:27:12;;;;;;;3.75;2.47;;;15.40;84.90;;;;;;4995748;28;20045;-68
2022/05/23 00:29:38;;;;;;;5.18;2.60;;;15.40;85.20;;;;;;4997687;28;20096;-68
2022/05/23 00:37:33;;;;;;;3.90;2.70;;;15.40;85.50;;;;;;5008806;28;20062;-68
2022/05/23 00:39:58;;;;;;;3.35;2.58;;;15.30;85.60;;;;;;5004765;28;20058;-69
2022/05/23 00:45:14;;;;;;;4.28;2.60;;;15.30;86.30;;;;;;5000144;28;20432;-69
2022/05/23 00:47:41;;;;;;;4.05;2.67;;;15.30;86.50;;;;;;5009759;28;20038;-69
2022/05/23 00:50:07;;;;;;;8.23;3.28;;;15.30;86.80;;;;;;5007200;28;20049;-69
2022/05/23 00:52:39;;;;;;;4.65;2.80;;;15.30;87.00;;;;;;4992980;28;20042;-69
2022/05/23 00:55:08;;;;;;;4.35;2.88;;;15.20;87.30;;;;;;5001186;28;20026;-69
2022/05/23 00:57:37;;;;;;;4.10;2.67;;;15.20;87.40;;;;;;5008678;28;20493;-69
2022/05/23 01:00:05;;;;;;;4.55;2.60;;;15.20;87.70;;;;;;5006379;28;20022;-69
2022/05/23 01:02:31;;;;;;;3.95;2.65;;;15.20;88.00;;;;;;4992434;28;20046;-69
2022/05/23 01:04:57;;;;;;;3.15;2.47;;;15.20;88.10;;;;;;5002171;28;20110;-70
2022/05/23 01:07:23;;;;;;;5.45;2.78;;;15.20;88.30;;;;;;4998977;28;20061;-69
2022/05/23 01:09:50;;;;;;;5.47;2.95;;;15.10;88.50;;;;;;4997904;28;20038;-69
2022/05/23 01:12:15;;;;;;;4.25;2.75;;;15.10;88.70;;;;;;4993650;28;20034;-69
2022/05/23 01:14:56;;;;;;;4.03;3.10;;;15.10;88.90;;;;;;4996664;28;20087;-69
2022/05/23 01:17:24;;;;;;;7.03;3.33;;;15.00;89.10;;;;;;4995761;28;20045;-69
2022/05/23 01:19:50;;;;;;;6.45;3.42;;;15.00;89.30;;;;;;4998883;28;20537;-69
2022/05/23 01:22:37;;;;;;;5.80;3.25;;;15.00;89.50;;;;;;5006046;28;20501;-69
2022/05/23 01:25:15;;;;;;;4.25;2.83;;;15.00;89.90;;;;;;5011845;28;20033;-70
2022/05/23 01:27:41;;;;;;;4.07;3.20;;;15.00;90.00;;;;;;5009180;28;20037;-69
2022/05/23 01:30:08;;;;;;;5.25;3.03;;;14.90;90.00;;;;;;5010335;28;20084;-70
2022/05/23 01:32:33;;;;;;;4.32;2.97;;;14.90;90.10;;;;;;5003778;28;20030;-68
2022/05/23 01:34:59;;;;;;;6.32;3.03;;;14.90;90.20;;;;;;4992465;28;20100;-69
2022/05/23 01:37:24;;;;;;;4.35;2.95;;;14.90;90.30;;;;;;4992694;28;20026;-69
2022/05/23 01:39:49;;;;;;;4.40;3.45;;;14.80;90.40;;;;;;4992143;28;20058;-69
2022/05/23 01:42:15;;;;;;;6.20;3.65;;;14.80;90.50;;;;;;5003914;28;20030;-69
2022/05/23 01:44:41;;;;;;;4.93;2.70;;;14.80;90.60;;;;;;5015232;28;20029;-69
2022/05/23 01:47:09;;;;;;;4.47;3.22;;;14.80;90.70;;;;;;5004983;28;20030;-69
2022/05/23 01:49:34;;;;;;;5.78;3.50;;;14.80;90.80;;;;;;5013153;28;20041;-69
2022/05/23 01:51:59;;;;;;;5.32;3.10;;;14.80;90.90;;;;;;5007843;28;20027;-69
2022/05/23 01:54:25;;;;;;;4.43;3.00;;;14.70;90.90;;;;;;5012661;28;20378;-69
2022/05/23 01:56:50;;;;;;;7.25;4.10;;;14.70;91.00;;;;;;5012879;28;20120;-70
2022/05/23 02:02:00;;;;;;;7.07;3.50;;;14.70;91.20;;;;;;5000593;28;20562;-70
2022/05/23 02:04:27;;;;;;;10.10;4.15;;;14.60;91.30;;;;;;5013003;28;20033;-70
2022/05/23 02:06:53;;;;;;;5.03;3.00;;;14.60;91.40;;;;;;5007572;28;20054;-69
2022/05/23 02:09:26;;;;;;;5.82;3.70;;;14.60;91.50;;;;;;4994857;28;20216;-70
2022/05/23 02:11:54;;;;;;;4.28;3.22;;;14.60;91.60;;;;;;5009494;28;20045;-69
2022/05/23 02:14:20;;;;;;;5.00;3.00;;;14.60;91.70;;;;;;5010118;28;20108;-70
2022/05/23 02:16:45;;;;;;;5.63;3.53;;;14.50;91.70;;;;;;5006919;28;20065;-70
2022/05/23 02:19:11;;;;;;;9.77;3.92;;;14.60;91.80;;;;;;4999489;28;20097;-69
2022/05/23 02:21:36;;;;;;;4.68;3.10;;;14.60;91.90;;;;;;5011837;28;20045;-70
2022/05/23 02:24:03;;;;;;;6.03;3.65;;;14.60;92.00;;;;;;4994775;28;20023;-70
2022/05/23 02:26:29;;;;;;;8.02;3.67;;;14.60;92.00;;;;;;5010359;28;20485;-70
2022/05/23 02:28:55;;;;;;;5.25;3.40;;;14.50;92.00;;;;;;4995099;28;20049;-69
2022/05/23 02:31:20;;;;;;;4.20;3.65;;;14.50;92.00;;;;;;4997589;28;20042;-69
2022/05/23 02:33:46;;;;;;;6.72;3.97;;;14.50;92.10;;;;;;4995015;28;20023;-69
2022/05/23 02:36:11;;;;;;;5.38;3.50;;;14.50;92.10;;;;;;5007423;28;20112;-69
2022/05/23 02:38:37;;;;;;;7.10;3.55;;;14.50;92.10;;;;;;4999050;28;20034;-69
2022/05/23 02:41:02;;;;;;;5.90;3.42;;;14.50;92.20;;;;;;5006240;28;20607;-69
2022/05/23 02:43:28;;;;;;;4.53;3.70;;;14.40;92.20;;;;;;5012740;28;20018;-69
2022/05/23 02:45:54;;;;;;;4.57;3.30;;;14.40;92.30;;;;;;5001391;28;20096;-69
2022/05/23 02:48:19;;;;;;;6.38;3.97;;;14.40;92.40;;;;;;4994407;28;20032;-69
2022/05/23 02:50:44;;;;;;;6.07;3.65;;;14.30;92.50;;;;;;5004712;28;20484;-68
2022/05/23 02:53:10;;;;;;;5.13;3.75;;;14.30;92.50;;;;;;5013486;28;20018;-69
2022/05/23 02:55:35;;;;;;;5.97;4.30;;;14.30;92.60;;;;;;5007131;28;20020;-69
2022/05/23 02:58:01;;;;;;;6.22;3.88;;;14.30;92.70;;;;;;5013744;28;20022;-68
2022/05/23 03:00:27;;;;;;;6.50;4.43;;;14.30;92.80;;;;;;5010056;28;20113;-69
2022/05/23 03:03:01;;;;;;;5.72;3.70;;;14.30;92.90;;;;;;5012207;28;20034;-69
2022/05/23 03:05:29;;;;;;;5.20;4.10;;;14.30;92.90;;;;;;5010287;28;20457;-69
2022/05/23 03:07:54;;;;;;;4.63;3.70;;;14.30;93.00;;;;;;5005182;28;20080;-69
2022/05/23 03:10:20;;;;;;;7.40;4.30;;;14.30;93.10;;;;;;5004820;28;20038;-69
2022/05/23 03:12:45;;;;;;;7.00;4.05;;;14.30;93.20;;;;;;4993849;28;20117;-69
2022/05/23 03:15:11;;;;;;;6.43;3.78;;;14.30;93.20;;;;;;4998566;28;20448;-68
2022/05/23 03:17:37;;;;;;;5.68;3.95;;;14.30;93.30;;;;;;5013135;28;20046;-68
2022/05/23 03:20:03;;;;;;;7.32;3.95;;;14.30;93.40;;;;;;4997711;28;20026;-69
2022/05/23 03:27:57;;;;;;;7.20;4.40;;;14.30;93.40;;;;;;4994776;28;20261;-70
2022/05/23 03:30:23;;;;;;;6.45;3.70;;;14.30;93.50;;;;;;5011052;28;20024;-70
2022/05/23 03:32:49;;;;;;;7.40;4.22;;;14.30;93.50;;;;;;4998802;28;20034;-70
2022/05/23 03:35:15;;;;;;;8.13;4.40;;;14.30;93.50;;;;;;4998345;28;20026;-70
2022/05/23 03:37:40;;;;;;;6.00;4.55;;;14.30;93.50;;;;;;5008886;28;20077;-70
2022/05/23 03:40:07;;;;;;;6.53;4.07;;;14.30;93.50;;;;;;5007724;28;20481;-70
2022/05/23 03:42:33;;;;;;;5.95;4.15;;;14.30;93.60;;;;;;5009791;28;20036;-70
2022/05/23 03:44:59;;;;;;;6.25;4.22;;;14.40;93.70;;;;;;5011048;28;20389;-69
2022/05/23 03:47:25;;;;;;;6.07;4.32;;;14.40;93.60;;;;;;5001778;28;20055;-69
2022/05/23 03:49:50;;;;;;;6.13;4.07;;;14.40;93.60;;;;;;4995092;28;20022;-70
2022/05/23 03:52:16;;;;;;;5.95;4.63;;;14.40;93.60;;;;;;5003924;28;20029;-69
2022/05/23 03:54:41;;;;;;;6.75;4.38;;;14.40;93.70;;;;;;5004714;28;20472;-70
2022/05/23 03:57:07;;;;;;;5.30;4.43;;;14.40;93.70;;;;;;5005699;28;20030;-69
2022/05/23 03:59:32;;;;;;;7.72;4.65;;;14.40;93.80;;;;;;4993036;28;20481;-70
2022/05/23 04:01:58;;;;;;;7.72;5.57;;;14.40;93.80;;;;;;5006940;28;20031;-70
2022/05/23 04:04:26;;;;;;;5.05;4.13;;;14.40;93.80;;;;;;5011490;28;20381;-69
2022/05/23 04:06:52;;;;;;;7.20;4.70;;;14.40;93.90;;;;;;5006882;28;20053;-68
2022/05/23 04:09:18;;;;;;;8.15;4.82;;;14.50;93.90;;;;;;4992591;28;20050;-71
2022/05/23 04:11:44;;;;;;;6.13;4.60;;;14.50;93.90;;;;;;5008625;28;20169;-69
2022/05/23 04:14:09;;;;;;;6.85;5.15;;;14.50;93.90;;;;;;4998067;28;20373;-67
2022/05/23 04:16:35;;;;;;;7.75;5.72;;;14.50;93.90;;;;;;5009829;28;20557;-65
2022/05/23 04:19:05;;;;;;;7.05;5.00;;;14.60;93.90;;;;;;4992321;28;20025;-65
2022/05/23 04:21:31;;;;;;;6.78;4.70;;;14.50;93.90;;;;;;4993084;28;20042;-64
2022/05/23 04:23:57;;;;;;;7.97;5.75;;;14.60;93.90;;;;;;4992873;28;20022;-64
2022/05/23 04:26:22;;;;;;;7.13;4.85;;;14.60;93.90;;;;;;5003249;28;20033;-66
2022/05/23 04:28:48;;;;;;;7.15;5.60;;;14.60;93.90;;;;;;5011378;28;20457;-65
2022/05/23 04:31:14;;;;;;;7.10;4.88;;;14.60;93.80;;;;;;5005975;28;20161;-65
2022/05/23 04:36:24;;;;;;;5.83;4.60;;;14.70;93.80;;;;;;5009315;28;20026;-65
2022/05/23 04:38:49;;;;;;;5.47;4.28;;;14.70;93.80;;;;;;5002090;28;20030;-65
2022/05/23 04:41:15;;;;;;;6.55;4.78;;;14.70;93.80;;;;;;5004603;28;20509;-65
2022/05/23 04:43:40;;;;;;;7.43;4.78;;;14.70;93.80;;;;;;5009407;28;20056;-65
2022/05/23 04:46:06;;;;;;;6.85;5.15;;;14.80;93.90;;;;;;5002077;28;20033;-65
2022/05/23 04:51:16;;;;;;;5.38;4.43;;;14.90;93.80;;;;;;4995195;28;20038;-65
2022/05/23 04:53:41;;;;;;;6.88;5.15;;;14.90;93.80;;;;;;4994999;28;20389;-67
2022/05/23 04:56:07;;;;;;;7.13;4.78;;;15.00;93.80;;;;;;5008318;28;20026;-67
2022/05/23 04:58:33;;;;;;;9.63;5.35;;;15.10;93.70;;;;;;4993020;28;20080;-66
2022/05/23 05:01:00;;;;;;;7.20;4.93;;;15.20;93.60;;;;;;4993909;28;20440;-67
2022/05/23 05:03:25;;;;;;;6.28;4.18;;;15.30;93.60;;;;;;5001162;28;20092;-66
2022/05/23 05:05:51;;;;;;;8.82;5.03;;;15.30;93.60;;;;;;5006411;28;20042;-66
2022/05/23 05:08:17;;;;;;;7.68;4.35;;;15.40;93.50;;;;;;4992106;28;20080;-68
2022/05/23 05:10:44;;;;;;;7.50;4.38;;;15.50;93.40;;;;;;4999262;28;20489;-66
2022/05/23 05:13:10;;;;;;;7.05;4.18;;;15.60;93.40;;;;;;4999820;28;20026;-66
2022/05/23 05:15:36;;;;;;;7.38;5.00;;;15.70;93.40;;;;;;4997099;28;20426;-65
2022/05/23 05:18:02;;;;;;;6.13;4.75;;;15.70;93.30;;;;;;5011201;28;20029;-65
2022/05/23 05:20:29;;;;;;;7.22;4.55;;;15.80;93.20;;;;;;5002515;28;20037;-66
2022/05/23 05:22:54;;;;;;;8.52;4.47;;;15.90;93.10;;;;;;5014814;28;20121;-66
2022/05/23 05:25:20;;;;;;;7.45;4.70;;;15.90;93.10;;;;;;5001803;28;20114;-66
2022/05/23 05:27:45;;;;;;;8.07;4.50;;;16.00;93.00;;;;;;4999790;28;20041;-66
2022/05/23 05:30:15;;;;;;;6.40;4.25;;;16.00;92.90;;;;;;4999686;28;20051;-66
2022/05/23 05:32:53;;;;;;;9.13;4.68;;;16.10;92.90;;;;;;5009317;28;20141;-66
2022/05/23 05:35:33;;;;;;;6.00;4.38;;;16.20;92.70;;;;;;4999316;28;20066;-67
2022/05/23 05:38:10;;;;;;;7.65;4.30;;;16.20;92.50;;;;;;4996917;28;20100;-66
2022/05/23 05:40:36;;;;;;;5.45;3.75;;;16.20;92.40;;;;;;5009024;28;20059;-67
2022/05/23 05:43:07;;;;;;;4.47;3.78;;;16.30;92.40;;;;;;4995723;28;20022;-66
2022/05/23 05:45:44;;;;;;;6.70;3.80;;;16.30;92.20;;;;;;5003873;28;20026;-65
2022/05/23 05:48:11;;;;;;;5.40;4.22;;;16.40;92.10;;;;;;5007745;28;20054;-65
2022/05/23 05:50:40;;;;;;;5.97;3.60;;;16.40;92.00;;;;;;5010333;28;20034;-65
2022/05/23 05:53:09;;;;;;;7.65;4.05;;;16.50;91.90;;;;;;4995716;28;20027;-66
2022/05/23 05:55:37;;;;;;;6.85;3.38;;;16.50;91.70;;;;;;4996390;28;20422;-66
2022/05/23 05:58:03;;;;;;;6.32;3.30;;;16.60;91.70;;;;;;4998504;28;20539;-65
2022/05/23 06:00:29;;;;;;;4.78;3.35;;;16.70;91.50;;;;;;5011401;28;20125;-66
2022/05/23 06:02:54;;;;;;;5.28;3.13;;;16.70;91.40;;;;;;5010681;28;20034;-65
2022/05/23 06:05:20;;;;;;;12.98;3.80;;;16.80;91.40;;;;;;5007081;28;20025;-65
2022/05/23 06:13:15;;;;;;;5.20;3.45;;;16.90;90.60;;;;;;4996851;28;20037;-67
2022/05/23 06:15:41;;;;;;;5.18;2.90;;;17.00;90.40;;;;;;5011374;28;20030;-67
2022/05/23 06:18:06;;;;;;;4.10;2.95;;;17.00;90.30;;;;;;4995243;28;20061;-68
2022/05/23 06:20:32;;;;;;;5.88;3.03;;;17.10;90.30;;;;;;5010390;28;20025;-68
2022/05/23 06:22:58;;;;;;;5.85;2.78;;;17.20;90.10;;;;;;5012636;28;20217;-68
2022/05/23 06:25:23;;;;;;;3.28;2.55;;;17.20;90.10;;;;;;5011380;28;20470;-68
2022/05/23 06:27:49;;;;;;;4.22;2.85;;;17.30;90.00;;;;;;4997504;28;20034;-67
2022/05/23 06:30:16;;;;;;;5.10;2.75;;;17.40;89.80;;;;;;5003539;28;20026;-68
2022/05/23 06:32:42;;;;;;;3.25;2.55;;;17.40;89.70;;;;;;5000746;28;20140;-68
2022/05/23 06:35:08;;;;;;;6.18;2.80;;;17.40;89.00;;;;;;4999404;28;20025;-68
2022/05/23 06:37:35;;;;;;;7.18;3.30;;;17.50;88.80;;;;;;5012639;28;20037;-69
2022/05/23 06:40:03;;;;;;;5.57;2.85;;;17.50;88.50;;;;;;5011563;28;20030;-68
2022/05/23 06:42:31;;;;;;;6.00;2.70;;;17.60;88.20;;;;;;4999963;28;20078;-68
2022/05/23 06:44:56;;;;;;;6.45;2.58;;;17.60;88.10;;;;;;5004175;28;20044;-67
2022/05/23 06:47:21;;;;;;;5.03;2.72;;;17.70;87.30;;;;;;5011442;28;20416;-68
2022/05/23 06:49:47;;;;;;;3.55;2.40;;;17.80;87.20;;;;;;5011767;28;20150;-67
2022/05/23 06:52:15;;;;;;;4.75;2.63;;;17.80;86.80;;;;;;5012947;28;20116;-66
2022/05/23 06:54:41;;;;;;;3.75;2.40;;;17.90;86.40;;;;;;5004583;28;20037;-66
2022/05/23 06:57:06;;;;;;;3.70;2.35;;;17.90;86.10;;;;;;5004220;28;20375;-66
2022/05/23 06:59:32;;;;;;;7.22;2.47;;;18.00;85.80;;;;;;4999801;28;20056;-66
2022/05/23 07:01:58;;;;;;;5.00;2.08;;;18.00;85.40;;;;;;5012492;28;20397;-67
2022/05/23 07:04:23;;;;;;;5.55;2.25;;;18.10;84.80;;;;;;5006982;28;20041;-67
2022/05/23 07:12:23;;;;;;;5.18;2.15;;;18.40;84.20;;;;;;5002792;28;20038;-66
2022/05/23 07:14:49;;;;;;;4.88;2.30;;;18.40;84.20;;;;;;5011661;28;20363;-67
2022/05/23 07:17:14;;;;;;;4.03;2.08;;;18.60;83.90;;;;;;5003211;28;20033;-68
2022/05/23 07:19:40;;;;;;;4.95;2.50;;;18.60;83.80;;;;;;5000028;28;20089;-67
2022/05/23 07:22:05;;;;;;;5.88;2.33;;;18.70;83.00;;;;;;5012589;28;20037;-67
2022/05/23 07:24:31;;;;;;;7.03;2.88;;;18.80;82.90;;;;;;5012293;28;20026;-67
2022/05/23 07:27:00;;;;;;;5.30;2.22;;;18.90;82.40;;;;;;5012578;28;20030;-67
2022/05/23 07:29:26;;;;;;;3.95;2.08;;;18.90;81.70;;;;;;5013134;28;20021;-67
2022/05/23 07:31:52;;;;;;;5.18;2.60;;;19.00;81.70;;;;;;5013962;28;20500;-66
2022/05/23 07:34:19;;;;;;;4.32;2.50;;;19.00;81.10;;;;;;5010905;28;20026;-66
2022/05/23 07:36:45;;;;;;;3.65;2.08;;;19.10;81.90;;;;;;5009827;28;20034;-67
2022/05/23 07:39:12;;;;;;;3.45;2.08;;;19.20;80.80;;;;;;5012241;28;20478;-66
2022/05/23 07:41:39;;;;;;;5.00;2.13;;;19.30;80.70;;;;;;5009705;28;20440;-68
2022/05/23 07:44:06;;;;;;;6.40;2.40;;;19.40;80.00;;;;;;5008700;28;20108;-67
2022/05/23 07:46:32;;;;;;;9.95;2.15;;;19.50;80.90;;;;;;4996991;28;20600;-68
2022/05/23 07:48:58;;;;;;;3.25;2.00;;;19.50;80.20;;;;;;5008998;28;20134;-68
2022/05/23 07:51:24;;;;;;;3.88;2.13;;;19.60;79.50;;;;;;5006380;28;20386;-68
2022/05/23 08:02:04;;;;;;;5.85;2.30;;;19.90;78.90;;;;;;5003640;28;20048;-76
2022/05/23 08:04:30;;;;;;;4.68;2.15;;;20.00;78.30;;;;;;5009218;28;20037;-75
2022/05/23 08:06:55;;;;;;;3.40;1.95;;;20.00;77.90;;;;;;5011452;28;20026;-76
2022/05/23 08:09:21;;;;;;;3.60;1.90;;;20.10;77.10;;;;;;5011378;28;20042;-76
2022/05/23 08:11:50;;;;;;;3.40;1.90;;;20.20;76.40;;;;;;5011109;28;20033;-75
2022/05/23 08:14:16;;;;;;;2.15;1.50;;;20.20;76.30;;;;;;5025790;28;20040;-75
2022/05/23 08:16:41;;;;;;;2.95;1.73;;;20.30;75.50;;;;;;5008787;28;20033;-75
2022/05/23 08:19:08;;;;;;;4.25;1.75;;;20.30;75.70;;;;;;5022486;28;20052;-75
2022/05/23 08:21:35;;;;;;;3.05;1.60;;;20.40;75.50;;;;;;5010050;28;20029;-76
2022/05/23 08:24:00;;;;;;;4.28;2.03;;;20.40;75.00;;;;;;5004702;28;20032;-76
2022/05/23 08:26:28;;;;;;;2.28;1.60;;;20.50;73.80;;;;;;4999167;28;20093;-74
2022/05/23 08:28:54;;;;;;;3.05;1.88;;;20.60;72.80;;;;;;5018331;28;20057;-75
2022/05/23 08:31:20;;;;;;;5.55;2.10;;;20.60;72.90;;;;;;5008331;28;20385;-75
2022/05/23 08:33:46;;;;;;;5.93;2.30;;;20.60;73.10;;;;;;5021036;28;20388;-76
2022/05/23 08:36:12;;;;;;;4.10;1.80;;;20.70;71.60;;;;;;5009070;28;20032;-71
2022/05/23 08:38:37;;;;;;;3.38;1.55;;;20.70;71.00;;;;;;5022293;28;20037;-72
2022/05/23 08:41:14;;;;;;;4.22;2.15;;;20.80;71.30;;;;;;5012487;28;20042;-76
2022/05/23 08:43:46;;;;;;;2.88;1.90;;;20.90;71.10;;;;;;5023326;28;20056;-75
2022/05/23 08:46:21;;;;;;;2.60;1.50;;;20.90;70.60;;;;;;5013620;28;20033;-75
2022/05/23 08:49:15;;;;;;;3.70;1.67;;;21.00;69.50;;;;;;5011949;28;20060;-75
2022/05/23 08:51:45;;;;;;;3.03;1.55;;;21.00;68.10;;;;;;5015100;28;20037;-75
2022/05/23 08:54:39;;;;;;;3.17;1.58;;;21.00;67.60;;;;;;5012912;28;20107;-75
2022/05/23 08:57:14;;;;;;;3.72;1.50;;;21.10;68.10;;;;;;4999698;28;20025;-75
2022/05/23 08:59:43;;;;;;;2.80;1.60;;;21.10;67.60;;;;;;5017281;28;20053;-74
2022/05/23 09:02:41;;;;;;;2.63;1.73;;;21.20;67.60;;;;;;5013520;28;20052;-75
2022/05/23 09:05:20;;;;;;;2.95;1.55;;;21.30;68.30;;;;;;5008045;28;20053;-75
2022/05/23 09:07:55;;;;;;;4.60;1.90;;;21.40;68.20;;;;;;5004824;28;20040;-75
2022/05/23 09:10:22;;;;;;;;;;;21.40;68.00;;;;;;5018896;28;20560;-75
2022/05/23 09:12:51;;;;;;;2.85;1.65;;;21.50;68.90;;;;;;5008630;28;19913;-73
2022/05/23 09:15:16;;;;;;;3.90;1.60;;;21.60;67.20;;;;;;5020974;28;20354;-70
2022/05/23 09:17:45;;;;;;;4.32;1.80;;;21.60;67.30;;;;;;5012275;28;20044;-71
2022/05/23 09:20:19;;;;;;;2.63;1.58;;;21.70;66.70;;;;;;5010691;28;20030;-71
2022/05/23 09:22:50;;;;;;;3.33;1.27;;;21.70;65.30;;;;;;5017552;28;20044;-71
2022/05/23 09:25:20;;;;;;;3.83;1.83;;;21.80;64.50;;;;;;5005069;28;20026;-72
2022/05/23 09:27:51;;;;;;;3.10;1.50;;;21.80;64.80;;;;;;5017707;28;20116;-72
2022/05/23 09:30:23;;;;;;;2.55;1.70;;;21.80;64.10;;;;;;5008171;28;20029;-72
2022/05/23 09:33:14;;;;;;;3.28;1.50;;;21.90;64.70;;;;;;5030684;28;20068;-72
2022/05/23 09:35:43;;;;;;;1.50;1.27;;;22.00;64.20;;;;;;5009417;28;20035;-71
2022/05/23 09:38:18;;;;;;;3.00;1.60;;;22.20;64.10;;;;;;5006928;28;20022;-72
2022/05/23 09:40:44;;;;;;;4.88;1.60;;;22.20;64.20;;;;;;5009386;28;20480;-72
2022/05/23 09:49:20;;;;;;;1.90;1.30;;;22.50;64.20;;;;;;5008932;28;20120;-72
2022/05/23 09:51:58;;;;;;;2.20;1.50;;;22.60;62.10;;;;;;5005069;28;20109;-71
2022/05/23 09:54:46;;;;;;;5.15;1.85;;;22.70;61.90;;;;;;5021308;28;20163;-72
2022/05/23 09:57:35;;;;;;;2.60;1.55;;;22.70;62.00;;;;;;5008274;28;20035;-72
2022/05/23 10:00:17;;;;;;;2.45;1.30;;;22.90;62.50;;;;;;5004696;28;20037;-71
2022/05/23 10:02:57;;;;;;;3.03;1.58;;;23.00;62.10;;;;;;5010110;28;20450;-72
2022/05/23 10:05:41;;;;;;;3.30;1.55;;;23.10;61.10;;;;;;5012194;28;20034;-71
2022/05/23 10:08:29;;;;;;;4.93;1.90;;;23.20;61.10;;;;;;5011669;28;20056;-71
2022/05/23 10:10:58;;;;;;;2.38;1.40;;;23.30;60.00;;;;;;5006266;28;20057;-70
2022/05/23 10:13:29;;;;;;;2.75;1.70;;;23.30;59.20;;;;;;5003891;28;20531;-73
2022/05/23 10:15:59;;;;;;;2.95;1.33;;;23.30;59.00;;;;;;5014144;28;20034;-73
2022/05/23 10:18:32;;;;;;;2.42;1.42;;;23.40;59.30;;;;;;4995217;28;20034;-73
2022/05/23 10:21:01;;;;;;;4.25;1.48;;;23.50;59.30;;;;;;5008356;28;20034;-73
2022/05/23 10:23:33;;;;;;;2.05;1.20;;;23.60;58.70;;;;;;4996778;28;20085;-73
2022/05/23 10:26:23;;;;;;;2.45;1.25;;;23.70;58.40;;;;;;4998798;28;20026;-72
2022/05/23 10:28:55;;;;;;;2.08;1.40;;;23.80;58.60;;;;;;5012103;28;20523;-72
2022/05/23 10:31:43;;;;;;;2.30;1.42;;;23.80;58.70;;;;;;5004006;28;20057;-73
2022/05/23 10:34:43;;;;;;;3.35;1.85;;;23.90;57.60;;;;;;5014297;28;20026;-73
2022/05/23 10:37:32;;;;;;;2.90;1.73;;;24.00;57.10;;;;;;4994778;28;20026;-72
2022/05/23 10:43:12;;;;;;;3.42;1.50;;;24.00;57.10;;;;;;5007335;28;20037;-73
2022/05/23 10:45:48;;;;;;;4.40;1.63;;;24.10;57.50;;;;;;5013429;28;20105;-73
2022/05/23 10:48:35;;;;;;;3.17;1.83;;;24.20;57.70;;;;;;4993194;28;20121;-73
2022/05/23 10:51:08;;;;;;;2.90;1.60;;;24.20;57.50;;;;;;5006140;28;20037;-73
2022/05/23 10:54:08;;;;;;;3.42;1.30;;;24.30;56.30;;;;;;5015225;28;20034;-73
2022/05/23 10:56:46;;;;;;;2.92;2.08;;;24.40;56.80;;;;;;5031303;28;20032;-73
2022/05/23 10:59:20;;;;;;;2.53;1.42;;;24.40;56.20;;;;;;5030556;28;20033;-73
2022/05/23 11:02:00;;;;;;;1.95;1.40;;;24.50;56.40;;;;;;5032994;28;20041;-73
2022/05/23 11:05:10;;;;;;;3.55;1.75;;;24.60;56.60;;;;;;5019130;28;20022;-73
2022/05/23 11:07:35;;;;;;;3.50;1.80;;;24.60;57.00;;;;;;4971864;28;20142;-73
2022/05/23 11:10:36;;;;;;;5.70;1.60;;;24.60;56.50;;;;;;4984830;28;20053;-73
2022/05/23 11:13:17;;;;;;;2.70;1.55;;;24.70;56.50;;;;;;4986854;28;20069;-73
2022/05/23 11:16:07;;;;;;;3.00;1.75;;;24.70;55.10;;;;;;5025843;28;20030;-73
2022/05/23 11:18:36;;;;;;;4.32;1.77;;;24.70;54.80;;;;;;5018586;28;20021;-73
2022/05/23 11:21:07;;;;;;;2.38;1.50;;;24.70;54.60;;;;;;5028952;28;20038;-73
2022/05/23 11:23:45;;;;;;;2.90;1.58;;;24.70;54.10;;;;;;5021955;28;20064;-72
2022/05/23 11:26:21;;;;;;;2.42;1.50;;;24.70;54.60;;;;;;5019706;28;20068;-72
2022/05/23 11:34:48;;;;;;;6.38;1.60;;;24.80;54.10;;;;;;4996650;28;20096;-73
2022/05/23 11:39:54;;;;;;;2.88;1.48;;;24.70;53.70;;;;;;5025005;28;20041;-73
2022/05/23 11:42:49;;;;;;;2.88;1.50;;;24.70;53.40;;;;;;4999566;28;20397;-73
2022/05/23 11:48:29;;;;;;;2.92;1.83;;;24.70;54.10;;;;;;5002157;28;20378;-74
2022/05/23 11:51:06;;;;;;;4.57;1.83;;;24.70;55.00;;;;;;5016150;28;20057;-74
2022/05/23 11:53:34;;;;;;;3.22;1.33;;;24.70;54.60;;;;;;5012326;28;20408;-74
2022/05/23 11:56:03;;;;;;;3.38;1.77;;;24.70;54.00;;;;;;5003675;28;20044;-73
2022/05/23 11:58:48;;;;;;;2.33;1.52;;;24.70;53.70;;;;;;5014551;28;20045;-74
2022/05/23 12:01:14;;;;;;;4.65;1.67;;;24.70;54.20;;;;;;4997627;28;20131;-73
2022/05/23 12:03:51;;;;;;;3.25;1.85;;;24.70;53.70;;;;;;5028006;28;20548;-74
2022/05/23 12:06:33;;;;;;;4.80;2.38;;;24.70;53.50;;;;;;5012048;28;20022;-73
2022/05/23 12:09:01;;;;;;;5.28;1.88;;;24.80;53.70;;;;;;5017621;28;20124;-73
2022/05/23 12:11:30;;;;;;;3.22;2.10;;;24.80;53.80;;;;;;5030533;28;20112;-73
2022/05/23 12:14:13;;;;;;;3.20;1.63;;;24.80;53.70;;;;;;5015698;28;20049;-73
2022/05/23 12:16:42;;;;;;;2.83;1.30;;;24.80;53.70;;;;;;5025164;28;20108;-74
2022/05/23 12:19:38;;;;;;;3.35;1.60;;;24.80;53.70;;;;;;5009135;28;20022;-73
2022/05/23 12:22:27;;;;;;;3.28;1.80;;;24.90;53.00;;;;;;5005777;28;20393;-73
2022/05/23 12:25:09;;;;;;;3.65;1.70;;;24.90;53.00;;;;;;5006826;28;20481;-73
2022/05/23 12:27:39;;;;;;;4.72;2.63;;;24.90;52.80;;;;;;4991466;28;20522;-73
2022/05/23 12:30:17;;;;;;;3.97;2.10;;;24.90;53.00;;;;;;4997955;28;20077;-73
2022/05/23 12:32:47;;;;;;;3.22;1.42;;;25.00;52.40;;;;;;5004536;28;20026;-73
2022/05/23 12:35:15;;;;;;;2.45;1.35;;;25.10;52.30;;;;;;4998859;28;20512;-73
2022/05/23 12:38:23;;;;;;;4.85;1.70;;;25.10;52.00;;;;;;4991988;28;20046;-73
2022/05/23 12:41:04;;;;;;;3.65;1.60;;;25.20;52.40;;;;;;5004931;28;20489;-72
2022/05/23 12:44:02;;;;;;;4.63;1.67;;;25.20;53.50;;;;;;4998080;28;20486;-73
2022/05/23 12:46:35;;;;;;;3.58;1.48;;;25.30;53.30;;;;;;4992041;28;20486;-73
2022/05/23 12:49:23;;;;;;;2.92;1.60;;;25.40;52.90;;;;;;5006772;28;20069;-73
2022/05/23 12:52:20;;;;;;;3.95;1.50;;;25.50;53.40;;;;;;5003327;28;20037;-73
2022/05/23 12:55:00;;;;;;;2.30;1.45;;;25.60;52.30;;;;;;5004501;28;20124;-73
2022/05/23 12:57:34;;;;;;;3.53;1.80;;;25.70;52.90;;;;;;5012281;28;20120;-73
2022/05/23 13:00:05;;;;;;;2.30;1.35;;;25.80;52.40;;;;;;5008593;28;20065;-73
2022/05/23 13:02:53;;;;;;;3.35;1.50;;;25.80;51.80;;;;;;5019250;28;20092;-73
2022/05/23 13:05:39;;;;;;;3.67;2.00;;;25.90;52.10;;;;;;5009105;28;20029;-73
2022/05/23 13:08:22;;;;;;;1.90;1.63;;;26.10;51.80;;;;;;5002442;28;20030;-72
2022/05/23 13:10:55;;;;;;;2.97;1.55;;;26.20;51.30;;;;;;4996349;28;20037;-72
2022/05/23 13:13:23;;;;;;;1.90;1.35;;;26.40;51.60;;;;;;5017783;28;20045;-73
2022/05/23 13:15:50;;;;;;;3.88;1.60;;;26.50;49.90;;;;;;5006934;28;20056;-72
2022/05/23 13:23:52;;;;;;;3.05;1.45;;;26.80;49.70;;;;;;5003324;28;20040;-72
2022/05/23 13:26:19;;;;;;;3.17;1.58;;;26.90;49.00;;;;;;4999281;28;20072;-72
2022/05/23 13:28:50;;;;;;;6.63;1.40;;;27.00;49.20;;;;;;5001759;28;20034;-72
2022/05/23 13:31:28;;;;;;;2.97;1.98;;;27.10;48.30;;;;;;4997709;28;20034;-72
2022/05/23 13:33:57;;;;;;;3.00;1.85;;;27.10;48.20;;;;;;5009355;28;20030;-72
2022/05/23 13:36:25;;;;;;;2.72;1.60;;;27.20;48.30;;;;;;4990460;28;20481;-72
2022/05/23 13:39:03;;;;;;;3.40;1.73;;;27.10;47.30;;;;;;4996333;28;20035;-71
2022/05/23 13:41:30;;;;;;;4.15;1.90;;;27.00;47.30;;;;;;5015010;28;20021;-73
2022/05/23 13:43:57;;;;;;;7.90;1.83;;;27.00;47.30;;;;;;5019473;28;20030;-72
2022/05/23 13:46:38;;;;;;;2.80;1.40;;;27.00;47.70;;;;;;5010124;28;20041;-72
2022/05/23 13:49:11;;;;;;;2.13;1.30;;;26.90;47.40;;;;;;5020659;28;20033;-73
2022/05/23 13:51:42;;;;;;;2.20;1.50;;;26.90;48.30;;;;;;5005956;28;20038;-73
2022/05/23 13:54:35;;;;;;;5.30;1.75;;;26.90;48.50;;;;;;5015199;28;20040;-73
2022/05/23 13:57:15;;;;;;;2.25;1.50;;;26.90;48.40;;;;;;5014536;28;20033;-73
2022/05/23 14:00:09;;;;;;;2.70;1.52;;;26.90;48.10;;;;;;5001697;28;20041;-72
2022/05/23 14:02:41;;;;;;;2.22;1.50;;;27.10;48.50;;;;;;4998301;28;20489;-72
2022/05/23 14:05:08;;;;;;;3.03;1.63;;;27.20;48.40;;;;;;5005377;28;20053;-73
2022/05/23 14:07:38;;;;;;;2.58;1.88;;;27.20;48.60;;;;;;5013215;28;20041;-73
2022/05/23 14:10:07;;;;;;;2.72;1.45;;;27.30;48.70;;;;;;5012610;28;20536;-73
2022/05/23 14:12:34;;;;;;;3.45;2.15;;;27.30;47.90;;;;;;5009763;28;20570;-72